KFFT/FFT METAR and TAF weather

Enter ICAO airport designator
Station Type Date Time Source
KFFT METAR 2020/07/06 22:53 UTC NOAA

KFFT 062253Z AUTO 30003KT 10SM CLR 30/19 A2998 RMK AO2 LTG DSNT N AND SE AND NW TSE09B17E32 SLP142 T03000194


Station Type Date Time Source
KFFT Decoded METAR 2020/07/06 22:53 UTC NOAA

FRANKFORT CAPITAL CITY AIRPORT , KY, United States (KFFT) 38-11N 84-54W 236M
Jul 06, 2020 - 06:53 PM EDT / 2020.07.06 2253 UTC
Wind: from the WNW (300 degrees) at 3 MPH (3 KT):0
Visibility: 10 mile(s):0
Sky conditions: clear
Weather: Lightning observed
Temperature: 86.0 F (30.0 C)
Dew Point: 66.9 F (19.4 C)
Relative Humidity: 53%
Pressure (altimeter): 29.98 in. Hg (1015 hPa)
ob: KFFT 062253Z AUTO 30003KT 10SM CLR 30/19 A2998 RMK AO2 LTG DSNT N AND SE AND NW TSE09B17E32 SLP142 T03000194
cycle: 23

Station Type Date Time Source
KFFT TAF UTC NOAA

Error!

Example: see airport list